sensor_id;sensor_type;location;lat;lon;timestamp;P1;durP1;ratioP1;P2;durP2;ratioP2
3074;SDS011;1548;51.716;8.748;2022-11-22T00:02:00;209.23;;;43.60;;
3074;SDS011;1548;51.716;8.748;2022-11-22T00:04:26;21.40;;;4.53;;
3074;SDS011;1548;51.716;8.748;2022-11-22T00:06:51;411.67;;;68.57;;
3074;SDS011;1548;51.716;8.748;2022-11-22T00:09:17;322.40;;;65.87;;
3074;SDS011;1548;51.716;8.748;2022-11-22T00:11:42;105.37;;;21.77;;
3074;SDS011;1548;51.716;8.748;2022-11-22T00:14:08;317.60;;;67.23;;
3074;SDS011;1548;51.716;8.748;2022-11-22T00:16:33;192.17;;;39.33;;
3074;SDS011;1548;51.716;8.748;2022-11-22T00:18:59;28.77;;;8.20;;
3074;SDS011;1548;51.716;8.748;2022-11-22T00:21:25;20.03;;;3.70;;
3074;SDS011;1548;51.716;8.748;2022-11-22T00:23:54;343.83;;;72.10;;
3074;SDS011;1548;51.716;8.748;2022-11-22T00:26:21;321.57;;;66.30;;
3074;SDS011;1548;51.716;8.748;2022-11-22T00:28:47;32.10;;;4.80;;
3074;SDS011;1548;51.716;8.748;2022-11-22T00:31:13;152.47;;;29.87;;
3074;SDS011;1548;51.716;8.748;2022-11-22T00:33:38;291.53;;;56.93;;
3074;SDS011;1548;51.716;8.748;2022-11-22T00:36:04;147.53;;;29.03;;
3074;SDS011;1548;51.716;8.748;2022-11-22T00:38:29;134.63;;;27.87;;
3074;SDS011;1548;51.716;8.748;2022-11-22T00:40:55;178.00;;;36.07;;
3074;SDS011;1548;51.716;8.748;2022-11-22T00:43:20;146.80;;;29.57;;
3074;SDS011;1548;51.716;8.748;2022-11-22T00:45:46;99.40;;;19.10;;
3074;SDS011;1548;51.716;8.748;2022-11-22T00:48:12;252.87;;;50.93;;
3074;SDS011;1548;51.716;8.748;2022-11-22T00:50:37;104.80;;;16.97;;
3074;SDS011;1548;51.716;8.748;2022-11-22T00:53:03;188.80;;;37.23;;
3074;SDS011;1548;51.716;8.748;2022-11-22T00:55:29;171.57;;;34.80;;
3074;SDS011;1548;51.716;8.748;2022-11-22T00:57:54;124.83;;;25.87;;
3074;SDS011;1548;51.716;8.748;2022-11-22T01:00:20;144.57;;;28.07;;
3074;SDS011;1548;51.716;8.748;2022-11-22T01:02:45;439.13;;;89.50;;
3074;SDS011;1548;51.716;8.748;2022-11-22T01:05:11;11.53;;;2.97;;
3074;SDS011;1548;51.716;8.748;2022-11-22T01:07:36;165.97;;;32.20;;
3074;SDS011;1548;51.716;8.748;2022-11-22T01:10:02;154.67;;;29.57;;
3074;SDS011;1548;51.716;8.748;2022-11-22T01:12:28;111.70;;;22.27;;
3074;SDS011;1548;51.716;8.748;2022-11-22T01:14:54;220.53;;;43.83;;
3074;SDS011;1548;51.716;8.748;2022-11-22T01:17:19;248.03;;;50.13;;
3074;SDS011;1548;51.716;8.748;2022-11-22T01:20:01;155.83;;;29.93;;
3074;SDS011;1548;51.716;8.748;2022-11-22T01:22:26;156.60;;;30.03;;
3074;SDS011;1548;51.716;8.748;2022-11-22T01:24:52;335.13;;;66.93;;
3074;SDS011;1548;51.716;8.748;2022-11-22T01:27:18;327.33;;;65.73;;
3074;SDS011;1548;51.716;8.748;2022-11-22T01:29:43;357.67;;;72.93;;
3074;SDS011;1548;51.716;8.748;2022-11-22T01:32:09;334.17;;;65.17;;
3074;SDS011;1548;51.716;8.748;2022-11-22T01:34:34;423.27;;;83.87;;
3074;SDS011;1548;51.716;8.748;2022-11-22T01:37:00;457.93;;;89.27;;
3074;SDS011;1548;51.716;8.748;2022-11-22T01:39:26;445.80;;;90.07;;
3074;SDS011;1548;51.716;8.748;2022-11-22T01:41:52;45.77;;;8.23;;
3074;SDS011;1548;51.716;8.748;2022-11-22T01:44:25;112.87;;;22.53;;
3074;SDS011;1548;51.716;8.748;2022-11-22T01:46:53;363.70;;;74.33;;
3074;SDS011;1548;51.716;8.748;2022-11-22T01:49:35;346.53;;;69.83;;
3074;SDS011;1548;51.716;8.748;2022-11-22T01:52:06;158.20;;;32.17;;
3074;SDS011;1548;51.716;8.748;2022-11-22T01:54:38;296.37;;;58.23;;
3074;SDS011;1548;51.716;8.748;2022-11-22T01:57:07;13.43;;;5.97;;
3074;SDS011;1548;51.716;8.748;2022-11-22T01:59:38;25.27;;;6.50;;
3074;SDS011;1548;51.716;8.748;2022-11-22T02:02:09;40.53;;;9.13;;
3074;SDS011;1548;51.716;8.748;2022-11-22T02:04:36;325.87;;;65.97;;
3074;SDS011;1548;51.716;8.748;2022-11-22T02:07:07;352.10;;;70.77;;
3074;SDS011;1548;51.716;8.748;2022-11-22T02:09:42;171.00;;;32.17;;
3074;SDS011;1548;51.716;8.748;2022-11-22T02:12:09;343.77;;;69.83;;
3074;SDS011;1548;51.716;8.748;2022-11-22T02:14:36;384.97;;;76.60;;
3074;SDS011;1548;51.716;8.748;2022-11-22T02:17:04;144.63;;;28.60;;
3074;SDS011;1548;51.716;8.748;2022-11-22T02:25:02;334.50;;;67.60;;
3074;SDS011;1548;51.716;8.748;2022-11-22T02:27:29;340.87;;;69.33;;
3074;SDS011;1548;51.716;8.748;2022-11-22T02:29:54;126.10;;;25.07;;
3074;SDS011;1548;51.716;8.748;2022-11-22T02:32:20;22.10;;;4.87;;
3074;SDS011;1548;51.716;8.748;2022-11-22T02:34:47;264.33;;;53.53;;
3074;SDS011;1548;51.716;8.748;2022-11-22T02:37:15;395.67;;;76.03;;
3074;SDS011;1548;51.716;8.748;2022-11-22T02:39:46;73.73;;;11.53;;
3074;SDS011;1548;51.716;8.748;2022-11-22T02:42:14;440.53;;;88.87;;
3074;SDS011;1548;51.716;8.748;2022-11-22T02:44:40;460.17;;;85.47;;
3074;SDS011;1548;51.716;8.748;2022-11-22T02:47:06;370.20;;;71.43;;
3074;SDS011;1548;51.716;8.748;2022-11-22T02:49:32;122.30;;;24.43;;
3074;SDS011;1548;51.716;8.748;2022-11-22T02:51:57;447.33;;;90.50;;
3074;SDS011;1548;51.716;8.748;2022-11-22T02:54:23;314.83;;;60.70;;
3074;SDS011;1548;51.716;8.748;2022-11-22T02:56:48;337.67;;;65.53;;
3074;SDS011;1548;51.716;8.748;2022-11-22T02:59:14;178.53;;;29.53;;
3074;SDS011;1548;51.716;8.748;2022-11-22T03:01:40;348.27;;;68.50;;
3074;SDS011;1548;51.716;8.748;2022-11-22T03:04:07;437.20;;;80.90;;
3074;SDS011;1548;51.716;8.748;2022-11-22T03:06:33;451.53;;;86.20;;
3074;SDS011;1548;51.716;8.748;2022-11-22T03:08:59;381.97;;;74.77;;
3074;SDS011;1548;51.716;8.748;2022-11-22T03:11:24;375.40;;;72.03;;
3074;SDS011;1548;51.716;8.748;2022-11-22T03:13:50;349.20;;;68.17;;
3074;SDS011;1548;51.716;8.748;2022-11-22T03:16:15;380.77;;;74.73;;
3074;SDS011;1548;51.716;8.748;2022-11-22T03:18:41;449.93;;;87.37;;
3074;SDS011;1548;51.716;8.748;2022-11-22T03:21:07;335.97;;;64.77;;
3074;SDS011;1548;51.716;8.748;2022-11-22T03:23:34;364.97;;;71.03;;
3074;SDS011;1548;51.716;8.748;2022-11-22T03:26:06;312.73;;;59.13;;
3074;SDS011;1548;51.716;8.748;2022-11-22T03:28:33;331.23;;;63.40;;
3074;SDS011;1548;51.716;8.748;2022-11-22T03:30:58;258.60;;;50.43;;
3074;SDS011;1548;51.716;8.748;2022-11-22T03:33:24;353.07;;;71.03;;
3074;SDS011;1548;51.716;8.748;2022-11-22T03:35:49;143.00;;;29.47;;
3074;SDS011;1548;51.716;8.748;2022-11-22T03:38:18;22.63;;;5.10;;
3074;SDS011;1548;51.716;8.748;2022-11-22T03:40:45;310.27;;;60.97;;
3074;SDS011;1548;51.716;8.748;2022-11-22T03:43:10;47.70;;;8.47;;
3074;SDS011;1548;51.716;8.748;2022-11-22T03:45:36;455.53;;;85.27;;
3074;SDS011;1548;51.716;8.748;2022-11-22T03:48:01;21.13;;;4.80;;
3074;SDS011;1548;51.716;8.748;2022-11-22T03:50:27;445.37;;;84.87;;
3074;SDS011;1548;51.716;8.748;2022-11-22T03:52:53;363.70;;;71.63;;
3074;SDS011;1548;51.716;8.748;2022-11-22T03:55:18;338.00;;;65.77;;
3074;SDS011;1548;51.716;8.748;2022-11-22T03:57:44;351.43;;;68.77;;
3074;SDS011;1548;51.716;8.748;2022-11-22T04:00:10;375.67;;;73.07;;
3074;SDS011;1548;51.716;8.748;2022-11-22T04:02:36;362.47;;;70.33;;
3074;SDS011;1548;51.716;8.748;2022-11-22T04:05:02;268.43;;;54.23;;
3074;SDS011;1548;51.716;8.748;2022-11-22T04:07:27;12.93;;;3.10;;
3074;SDS011;1548;51.716;8.748;2022-11-22T04:09:53;162.17;;;32.10;;
3074;SDS011;1548;51.716;8.748;2022-11-22T04:12:19;318.73;;;60.90;;
3074;SDS011;1548;51.716;8.748;2022-11-22T04:14:44;163.27;;;31.77;;
3074;SDS011;1548;51.716;8.748;2022-11-22T04:17:28;158.90;;;30.03;;
3074;SDS011;1548;51.716;8.748;2022-11-22T04:20:16;109.03;;;19.10;;
3074;SDS011;1548;51.716;8.748;2022-11-22T04:23:06;141.67;;;26.20;;
3074;SDS011;1548;51.716;8.748;2022-11-22T04:25:32;222.77;;;41.97;;
3074;SDS011;1548;51.716;8.748;2022-11-22T04:28:01;127.97;;;24.07;;
3074;SDS011;1548;51.716;8.748;2022-11-22T04:30:28;148.93;;;28.93;;
3074;SDS011;1548;51.716;8.748;2022-11-22T04:33:13;329.97;;;63.27;;
3074;SDS011;1548;51.716;8.748;2022-11-22T04:35:40;54.80;;;10.07;;
3074;SDS011;1548;51.716;8.748;2022-11-22T04:38:06;358.20;;;70.97;;
3074;SDS011;1548;51.716;8.748;2022-11-22T04:40:32;350.10;;;67.63;;
3074;SDS011;1548;51.716;8.748;2022-11-22T04:42:58;452.23;;;85.43;;
3074;SDS011;1548;51.716;8.748;2022-11-22T04:45:43;376.63;;;71.43;;
3074;SDS011;1548;51.716;8.748;2022-11-22T04:48:09;378.40;;;71.80;;
3074;SDS011;1548;51.716;8.748;2022-11-22T04:50:36;467.53;;;86.43;;
3074;SDS011;1548;51.716;8.748;2022-11-22T04:53:22;473.33;;;86.07;;
3074;SDS011;1548;51.716;8.748;2022-11-22T04:55:48;475.47;;;87.60;;
3074;SDS011;1548;51.716;8.748;2022-11-22T04:58:13;379.40;;;73.20;;
3074;SDS011;1548;51.716;8.748;2022-11-22T05:00:39;16.97;;;3.23;;
3074;SDS011;1548;51.716;8.748;2022-11-22T05:03:05;23.93;;;5.30;;
3074;SDS011;1548;51.716;8.748;2022-11-22T05:05:35;314.50;;;60.07;;
3074;SDS011;1548;51.716;8.748;2022-11-22T05:08:05;364.83;;;67.90;;
3074;SDS011;1548;51.716;8.748;2022-11-22T05:10:31;355.27;;;66.93;;
3074;SDS011;1548;51.716;8.748;2022-11-22T05:13:17;337.27;;;62.47;;
3074;SDS011;1548;51.716;8.748;2022-11-22T05:15:45;386.07;;;73.23;;
3074;SDS011;1548;51.716;8.748;2022-11-22T05:18:11;469.73;;;84.73;;
3074;SDS011;1548;51.716;8.748;2022-11-22T05:20:37;468.60;;;82.37;;
3074;SDS011;1548;51.716;8.748;2022-11-22T05:23:03;470.93;;;86.10;;
3074;SDS011;1548;51.716;8.748;2022-11-22T05:25:47;393.17;;;70.60;;
3074;SDS011;1548;51.716;8.748;2022-11-22T05:28:12;487.53;;;88.23;;
3074;SDS011;1548;51.716;8.748;2022-11-22T05:30:38;276.27;;;47.83;;
3074;SDS011;1548;51.716;8.748;2022-11-22T05:33:04;379.57;;;65.53;;
3074;SDS011;1548;51.716;8.748;2022-11-22T05:35:29;280.40;;;50.27;;
3074;SDS011;1548;51.716;8.748;2022-11-22T05:37:56;273.20;;;48.30;;
3074;SDS011;1548;51.716;8.748;2022-11-22T05:40:22;372.97;;;64.77;;
3074;SDS011;1548;51.716;8.748;2022-11-22T05:42:48;479.77;;;84.50;;
3074;SDS011;1548;51.716;8.748;2022-11-22T05:45:13;487.57;;;88.87;;
3074;SDS011;1548;51.716;8.748;2022-11-22T05:47:39;277.03;;;50.03;;
3074;SDS011;1548;51.716;8.748;2022-11-22T05:50:05;374.97;;;67.27;;
3074;SDS011;1548;51.716;8.748;2022-11-22T05:52:31;19.60;;;5.10;;
3074;SDS011;1548;51.716;8.748;2022-11-22T05:54:56;17.83;;;4.20;;
3074;SDS011;1548;51.716;8.748;2022-11-22T05:57:22;21.60;;;4.70;;
3074;SDS011;1548;51.716;8.748;2022-11-22T05:59:47;20.30;;;5.83;;
3074;SDS011;1548;51.716;8.748;2022-11-22T06:02:13;16.97;;;3.30;;
3074;SDS011;1548;51.716;8.748;2022-11-22T06:04:38;19.63;;;4.30;;
3074;SDS011;1548;51.716;8.748;2022-11-22T06:07:04;17.37;;;3.27;;
3074;SDS011;1548;51.716;8.748;2022-11-22T06:09:30;19.63;;;4.40;;
3074;SDS011;1548;51.716;8.748;2022-11-22T06:11:55;20.20;;;4.73;;
3074;SDS011;1548;51.716;8.748;2022-11-22T06:14:21;19.30;;;5.10;;
3074;SDS011;1548;51.716;8.748;2022-11-22T06:16:46;21.57;;;6.37;;
3074;SDS011;1548;51.716;8.748;2022-11-22T06:19:14;23.43;;;6.90;;
3074;SDS011;1548;51.716;8.748;2022-11-22T06:21:39;17.00;;;3.50;;
3074;SDS011;1548;51.716;8.748;2022-11-22T06:24:05;20.07;;;5.00;;
3074;SDS011;1548;51.716;8.748;2022-11-22T06:26:31;16.77;;;2.90;;
3074;SDS011;1548;51.716;8.748;2022-11-22T06:28:57;18.20;;;4.30;;
3074;SDS011;1548;51.716;8.748;2022-11-22T06:31:23;24.60;;;8.33;;
3074;SDS011;1548;51.716;8.748;2022-11-22T06:33:55;26.43;;;9.37;;
3074;SDS011;1548;51.716;8.748;2022-11-22T06:36:24;18.30;;;3.97;;
3074;SDS011;1548;51.716;8.748;2022-11-22T06:38:51;26.67;;;8.87;;
3074;SDS011;1548;51.716;8.748;2022-11-22T06:41:20;252.93;;;49.70;;
3074;SDS011;1548;51.716;8.748;2022-11-22T06:43:48;421.40;;;80.90;;
3074;SDS011;1548;51.716;8.748;2022-11-22T06:46:16;421.67;;;80.87;;
3074;SDS011;1548;51.716;8.748;2022-11-22T06:48:43;360.17;;;72.80;;
3074;SDS011;1548;51.716;8.748;2022-11-22T06:51:10;435.17;;;85.47;;
3074;SDS011;1548;51.716;8.748;2022-11-22T06:53:37;463.53;;;90.60;;
3074;SDS011;1548;51.716;8.748;2022-11-22T06:58:31;339.97;;;63.87;;
3074;SDS011;1548;51.716;8.748;2022-11-22T07:01:00;355.37;;;68.23;;
3074;SDS011;1548;51.716;8.748;2022-11-22T07:03:27;430.43;;;87.33;;
3074;SDS011;1548;51.716;8.748;2022-11-22T07:05:53;11.77;;;4.40;;
3074;SDS011;1548;51.716;8.748;2022-11-22T07:08:19;372.53;;;74.77;;
3074;SDS011;1548;51.716;8.748;2022-11-22T07:10:45;267.67;;;52.50;;
3074;SDS011;1548;51.716;8.748;2022-11-22T07:13:10;15.37;;;2.70;;
3074;SDS011;1548;51.716;8.748;2022-11-22T07:15:36;16.00;;;3.07;;
3074;SDS011;1548;51.716;8.748;2022-11-22T07:18:02;16.03;;;3.03;;
3074;SDS011;1548;51.716;8.748;2022-11-22T07:20:27;16.47;;;3.10;;
3074;SDS011;1548;51.716;8.748;2022-11-22T07:22:53;21.63;;;6.40;;
3074;SDS011;1548;51.716;8.748;2022-11-22T07:25:18;16.67;;;3.13;;
3074;SDS011;1548;51.716;8.748;2022-11-22T07:27:44;14.43;;;3.90;;
3074;SDS011;1548;51.716;8.748;2022-11-22T07:30:09;16.87;;;4.17;;
3074;SDS011;1548;51.716;8.748;2022-11-22T07:32:35;16.17;;;3.53;;
3074;SDS011;1548;51.716;8.748;2022-11-22T07:35:01;19.30;;;4.80;;
3074;SDS011;1548;51.716;8.748;2022-11-22T07:37:29;19.10;;;4.60;;
3074;SDS011;1548;51.716;8.748;2022-11-22T07:39:55;18.40;;;4.43;;
3074;SDS011;1548;51.716;8.748;2022-11-22T07:42:20;23.07;;;6.53;;
3074;SDS011;1548;51.716;8.748;2022-11-22T07:44:46;31.37;;;8.90;;
3074;SDS011;1548;51.716;8.748;2022-11-22T07:47:11;20.30;;;5.53;;
3074;SDS011;1548;51.716;8.748;2022-11-22T07:49:37;20.30;;;5.63;;
3074;SDS011;1548;51.716;8.748;2022-11-22T07:52:03;21.10;;;6.00;;
3074;SDS011;1548;51.716;8.748;2022-11-22T07:54:30;20.87;;;5.03;;
3074;SDS011;1548;51.716;8.748;2022-11-22T07:56:56;18.23;;;3.73;;
3074;SDS011;1548;51.716;8.748;2022-11-22T07:59:21;20.83;;;5.80;;
3074;SDS011;1548;51.716;8.748;2022-11-22T08:01:47;17.20;;;3.17;;
3074;SDS011;1548;51.716;8.748;2022-11-22T08:04:13;19.77;;;4.60;;
3074;SDS011;1548;51.716;8.748;2022-11-22T08:06:38;18.43;;;4.10;;
3074;SDS011;1548;51.716;8.748;2022-11-22T08:09:04;17.87;;;3.70;;
3074;SDS011;1548;51.716;8.748;2022-11-22T08:11:29;19.80;;;4.60;;
3074;SDS011;1548;51.716;8.748;2022-11-22T08:13:55;112.83;;;24.07;;
3074;SDS011;1548;51.716;8.748;2022-11-22T08:16:21;15.77;;;3.17;;
3074;SDS011;1548;51.716;8.748;2022-11-22T08:18:47;17.90;;;4.17;;
3074;SDS011;1548;51.716;8.748;2022-11-22T08:21:14;23.80;;;5.70;;
3074;SDS011;1548;51.716;8.748;2022-11-22T08:23:41;470.23;;;86.47;;
3074;SDS011;1548;51.716;8.748;2022-11-22T08:26:08;499.53;;;94.67;;
3074;SDS011;1548;51.716;8.748;2022-11-22T08:28:36;378.87;;;70.27;;
3074;SDS011;1548;51.716;8.748;2022-11-22T08:31:07;491.77;;;95.57;;
3074;SDS011;1548;51.716;8.748;2022-11-22T08:33:34;483.70;;;91.87;;
3074;SDS011;1548;51.716;8.748;2022-11-22T08:36:00;483.13;;;87.90;;
3074;SDS011;1548;51.716;8.748;2022-11-22T08:38:26;491.13;;;90.70;;
3074;SDS011;1548;51.716;8.748;2022-11-22T08:40:52;406.70;;;76.53;;
3074;SDS011;1548;51.716;8.748;2022-11-22T08:43:17;382.57;;;71.87;;
3074;SDS011;1548;51.716;8.748;2022-11-22T08:45:44;504.13;;;94.03;;
3074;SDS011;1548;51.716;8.748;2022-11-22T08:48:09;495.37;;;92.40;;
3074;SDS011;1548;51.716;8.748;2022-11-22T08:50:35;386.23;;;70.97;;
3074;SDS011;1548;51.716;8.748;2022-11-22T08:53:01;399.27;;;73.47;;
3074;SDS011;1548;51.716;8.748;2022-11-22T08:55:26;177.37;;;33.93;;
3074;SDS011;1548;51.716;8.748;2022-11-22T08:57:52;290.77;;;54.97;;
3074;SDS011;1548;51.716;8.748;2022-11-22T09:00:22;402.67;;;75.67;;
3074;SDS011;1548;51.716;8.748;2022-11-22T09:02:48;388.43;;;72.83;;
3074;SDS011;1548;51.716;8.748;2022-11-22T09:05:14;413.23;;;77.83;;
3074;SDS011;1548;51.716;8.748;2022-11-22T09:07:39;51.20;;;10.47;;
3074;SDS011;1548;51.716;8.748;2022-11-22T09:10:05;408.20;;;78.70;;
3074;SDS011;1548;51.716;8.748;2022-11-22T09:12:32;406.63;;;77.00;;
3074;SDS011;1548;51.716;8.748;2022-11-22T09:14:58;423.80;;;78.13;;
3074;SDS011;1548;51.716;8.748;2022-11-22T09:17:23;489.03;;;95.00;;
3074;SDS011;1548;51.716;8.748;2022-11-22T09:19:49;459.27;;;91.37;;
3074;SDS011;1548;51.716;8.748;2022-11-22T09:22:14;499.27;;;105.67;;
3074;SDS011;1548;51.716;8.748;2022-11-22T09:24:40;535.53;;;97.80;;
3074;SDS011;1548;51.716;8.748;2022-11-22T09:27:05;411.77;;;79.97;;
3074;SDS011;1548;51.716;8.748;2022-11-22T09:29:31;507.43;;;96.53;;
3074;SDS011;1548;51.716;8.748;2022-11-22T09:31:56;191.27;;;41.37;;
3074;SDS011;1548;51.716;8.748;2022-11-22T09:34:22;515.27;;;98.37;;
3074;SDS011;1548;51.716;8.748;2022-11-22T09:36:48;518.60;;;94.67;;
3074;SDS011;1548;51.716;8.748;2022-11-22T09:39:13;518.57;;;97.20;;
3074;SDS011;1548;51.716;8.748;2022-11-22T09:41:44;431.17;;;77.47;;
3074;SDS011;1548;51.716;8.748;2022-11-22T09:47:49;509.27;;;98.10;;
3074;SDS011;1548;51.716;8.748;2022-11-22T09:53:25;189.10;;;36.77;;
3074;SDS011;1548;51.716;8.748;2022-11-22T09:55:56;505.57;;;94.90;;
3074;SDS011;1548;51.716;8.748;2022-11-22T09:58:29;518.17;;;98.87;;
3074;SDS011;1548;51.716;8.748;2022-11-22T10:01:00;527.87;;;100.37;;
3074;SDS011;1548;51.716;8.748;2022-11-22T10:06:15;518.20;;;96.17;;
3074;SDS011;1548;51.716;8.748;2022-11-22T10:08:53;22.27;;;6.53;;
3074;SDS011;1548;51.716;8.748;2022-11-22T10:11:44;27.20;;;6.60;;
3074;SDS011;1548;51.716;8.748;2022-11-22T10:14:27;519.33;;;98.10;;
3074;SDS011;1548;51.716;8.748;2022-11-22T10:17:15;494.13;;;92.50;;
3074;SDS011;1548;51.716;8.748;2022-11-22T10:22:24;504.50;;;95.83;;
3074;SDS011;1548;51.716;8.748;2022-11-22T10:24:53;466.73;;;87.87;;
3074;SDS011;1548;51.716;8.748;2022-11-22T10:27:20;349.90;;;65.80;;
3074;SDS011;1548;51.716;8.748;2022-11-22T10:29:48;301.17;;;57.70;;
3074;SDS011;1548;51.716;8.748;2022-11-22T10:32:32;528.60;;;99.47;;
3074;SDS011;1548;51.716;8.748;2022-11-22T10:46:09;412.93;;;79.77;;
3074;SDS011;1548;51.716;8.748;2022-11-22T10:56:53;426.60;;;81.83;;
3074;SDS011;1548;51.716;8.748;2022-11-22T11:04:18;411.37;;;78.03;;
3074;SDS011;1548;51.716;8.748;2022-11-22T11:06:46;352.87;;;64.60;;
3074;SDS011;1548;51.716;8.748;2022-11-22T11:09:17;84.83;;;14.47;;
3074;SDS011;1548;51.716;8.748;2022-11-22T11:11:56;190.00;;;34.70;;
3074;SDS011;1548;51.716;8.748;2022-11-22T11:16:49;53.77;;;13.10;;
3074;SDS011;1548;51.716;8.748;2022-11-22T11:19:16;529.33;;;95.90;;
3074;SDS011;1548;51.716;8.748;2022-11-22T11:24:26;206.00;;;40.07;;
3074;SDS011;1548;51.716;8.748;2022-11-22T11:26:53;489.13;;;92.73;;
3074;SDS011;1548;51.716;8.748;2022-11-22T11:32:14;518.97;;;100.47;;
3074;SDS011;1548;51.716;8.748;2022-11-22T11:34:46;418.47;;;81.87;;
3074;SDS011;1548;51.716;8.748;2022-11-22T11:37:21;83.13;;;14.77;;
3074;SDS011;1548;51.716;8.748;2022-11-22T11:39:49;297.20;;;57.17;;
3074;SDS011;1548;51.716;8.748;2022-11-22T11:42:28;347.63;;;63.03;;
3074;SDS011;1548;51.716;8.748;2022-11-22T11:47:52;414.57;;;78.63;;
3074;SDS011;1548;51.716;8.748;2022-11-22T11:50:18;294.57;;;45.03;;
3074;SDS011;1548;51.716;8.748;2022-11-22T11:52:49;255.13;;;36.57;;
3074;SDS011;1548;51.716;8.748;2022-11-22T11:55:17;193.37;;;38.23;;
3074;SDS011;1548;51.716;8.748;2022-11-22T11:57:43;521.80;;;97.73;;
3074;SDS011;1548;51.716;8.748;2022-11-22T12:00:18;477.70;;;94.27;;
3074;SDS011;1548;51.716;8.748;2022-11-22T12:02:48;266.43;;;43.20;;
3074;SDS011;1548;51.716;8.748;2022-11-22T12:05:30;363.90;;;49.87;;
3074;SDS011;1548;51.716;8.748;2022-11-22T12:07:57;454.57;;;62.63;;
3074;SDS011;1548;51.716;8.748;2022-11-22T12:10:32;482.57;;;75.27;;
3074;SDS011;1548;51.716;8.748;2022-11-22T12:18:43;370.30;;;53.37;;
3074;SDS011;1548;51.716;8.748;2022-11-22T12:26:43;479.63;;;76.17;;
3074;SDS011;1548;51.716;8.748;2022-11-22T12:29:13;478.23;;;74.30;;
3074;SDS011;1548;51.716;8.748;2022-11-22T12:31:44;445.47;;;61.60;;
3074;SDS011;1548;51.716;8.748;2022-11-22T12:34:19;468.20;;;69.73;;
3074;SDS011;1548;51.716;8.748;2022-11-22T12:37:19;490.37;;;77.73;;
3074;SDS011;1548;51.716;8.748;2022-11-22T12:40:00;483.80;;;78.67;;
3074;SDS011;1548;51.716;8.748;2022-11-22T12:45:31;363.90;;;64.83;;
3074;SDS011;1548;51.716;8.748;2022-11-22T12:48:04;417.30;;;66.50;;
3074;SDS011;1548;51.716;8.748;2022-11-22T12:50:48;277.53;;;40.17;;
3074;SDS011;1548;51.716;8.748;2022-11-22T13:01:15;440.37;;;90.50;;
3074;SDS011;1548;51.716;8.748;2022-11-22T13:03:56;358.53;;;47.53;;
3074;SDS011;1548;51.716;8.748;2022-11-22T13:06:31;465.43;;;68.70;;
3074;SDS011;1548;51.716;8.748;2022-11-22T13:09:19;438.80;;;62.90;;
3074;SDS011;1548;51.716;8.748;2022-11-22T13:11:57;243.73;;;40.73;;
3074;SDS011;1548;51.716;8.748;2022-11-22T13:14:33;314.50;;;50.10;;
3074;SDS011;1548;51.716;8.748;2022-11-22T13:17:07;369.80;;;58.57;;
3074;SDS011;1548;51.716;8.748;2022-11-22T13:19:36;466.23;;;64.20;;
3074;SDS011;1548;51.716;8.748;2022-11-22T13:22:38;454.93;;;62.50;;
3074;SDS011;1548;51.716;8.748;2022-11-22T13:28:05;488.80;;;73.73;;
3074;SDS011;1548;51.716;8.748;2022-11-22T13:30:36;479.73;;;73.17;;
3074;SDS011;1548;51.716;8.748;2022-11-22T13:33:03;477.07;;;70.97;;
3074;SDS011;1548;51.716;8.748;2022-11-22T13:38:03;488.13;;;87.07;;
3074;SDS011;1548;51.716;8.748;2022-11-22T13:40:32;487.17;;;91.70;;
3074;SDS011;1548;51.716;8.748;2022-11-22T13:45:55;495.10;;;86.10;;
3074;SDS011;1548;51.716;8.748;2022-11-22T13:51:12;470.23;;;66.70;;
3074;SDS011;1548;51.716;8.748;2022-11-22T13:53:40;476.07;;;71.37;;
3074;SDS011;1548;51.716;8.748;2022-11-22T14:04:33;486.00;;;85.37;;
3074;SDS011;1548;51.716;8.748;2022-11-22T14:12:17;474.63;;;72.73;;
3074;SDS011;1548;51.716;8.748;2022-11-22T14:17:47;482.77;;;70.03;;
3074;SDS011;1548;51.716;8.748;2022-11-22T14:31:33;125.67;;;16.40;;
3074;SDS011;1548;51.716;8.748;2022-11-22T14:37:32;428.67;;;57.73;;
3074;SDS011;1548;51.716;8.748;2022-11-22T14:45:01;467.30;;;63.57;;
3074;SDS011;1548;51.716;8.748;2022-11-22T14:47:39;458.27;;;60.43;;
3074;SDS011;1548;51.716;8.748;2022-11-22T14:50:12;460.40;;;62.00;;
3074;SDS011;1548;51.716;8.748;2022-11-22T14:52:57;465.13;;;70.90;;
3074;SDS011;1548;51.716;8.748;2022-11-22T14:55:31;482.17;;;70.67;;
3074;SDS011;1548;51.716;8.748;2022-11-22T14:58:03;378.73;;;50.33;;
3074;SDS011;1548;51.716;8.748;2022-11-22T15:00:58;463.80;;;64.90;;
3074;SDS011;1548;51.716;8.748;2022-11-22T15:06:24;461.57;;;61.07;;
3074;SDS011;1548;51.716;8.748;2022-11-22T15:14:48;473.37;;;65.80;;
3074;SDS011;1548;51.716;8.748;2022-11-22T15:17:36;474.13;;;66.00;;
3074;SDS011;1548;51.716;8.748;2022-11-22T15:20:36;421.53;;;58.23;;
3074;SDS011;1548;51.716;8.748;2022-11-22T15:23:17;442.57;;;61.07;;
3074;SDS011;1548;51.716;8.748;2022-11-22T15:25:45;473.10;;;65.53;;
3074;SDS011;1548;51.716;8.748;2022-11-22T15:28:13;372.17;;;49.07;;
3074;SDS011;1548;51.716;8.748;2022-11-22T15:30:41;302.63;;;38.40;;
3074;SDS011;1548;51.716;8.748;2022-11-22T15:33:26;409.20;;;53.67;;
3074;SDS011;1548;51.716;8.748;2022-11-22T15:38:47;440.60;;;61.57;;
3074;SDS011;1548;51.716;8.748;2022-11-22T15:41:18;457.10;;;63.40;;
3074;SDS011;1548;51.716;8.748;2022-11-22T15:43:45;478.00;;;68.20;;
3074;SDS011;1548;51.716;8.748;2022-11-22T15:46:13;478.73;;;69.33;;
3074;SDS011;1548;51.716;8.748;2022-11-22T15:48:40;477.97;;;67.80;;
3074;SDS011;1548;51.716;8.748;2022-11-22T15:53:34;488.17;;;71.67;;
3074;SDS011;1548;51.716;8.748;2022-11-22T15:58:36;446.50;;;56.07;;
3074;SDS011;1548;51.716;8.748;2022-11-22T16:01:02;467.93;;;62.90;;
3074;SDS011;1548;51.716;8.748;2022-11-22T16:03:37;448.07;;;58.40;;
3074;SDS011;1548;51.716;8.748;2022-11-22T16:06:03;413.57;;;52.17;;
3074;SDS011;1548;51.716;8.748;2022-11-22T16:08:33;475.83;;;64.00;;
3074;SDS011;1548;51.716;8.748;2022-11-22T16:10:59;460.00;;;62.20;;
3074;SDS011;1548;51.716;8.748;2022-11-22T16:13:27;432.63;;;59.40;;
3074;SDS011;1548;51.716;8.748;2022-11-22T16:18:34;445.67;;;57.67;;
3074;SDS011;1548;51.716;8.748;2022-11-22T16:21:04;435.53;;;56.00;;
3074;SDS011;1548;51.716;8.748;2022-11-22T16:23:33;482.97;;;69.50;;
3074;SDS011;1548;51.716;8.748;2022-11-22T16:28:41;476.70;;;65.63;;
3074;SDS011;1548;51.716;8.748;2022-11-22T16:31:24;484.37;;;66.70;;
3074;SDS011;1548;51.716;8.748;2022-11-22T16:33:53;476.70;;;69.13;;
3074;SDS011;1548;51.716;8.748;2022-11-22T16:36:20;482.97;;;69.17;;
3074;SDS011;1548;51.716;8.748;2022-11-22T16:38:47;482.60;;;74.47;;
3074;SDS011;1548;51.716;8.748;2022-11-22T16:41:22;479.23;;;98.10;;
3074;SDS011;1548;51.716;8.748;2022-11-22T16:43:51;459.23;;;88.70;;
3074;SDS011;1548;51.716;8.748;2022-11-22T16:46:24;481.37;;;84.43;;
3074;SDS011;1548;51.716;8.748;2022-11-22T16:48:50;480.53;;;83.23;;
3074;SDS011;1548;51.716;8.748;2022-11-22T16:51:17;480.77;;;76.90;;
3074;SDS011;1548;51.716;8.748;2022-11-22T16:53:47;480.47;;;80.50;;
3074;SDS011;1548;51.716;8.748;2022-11-22T16:58:47;481.90;;;71.07;;
3074;SDS011;1548;51.716;8.748;2022-11-22T17:01:14;479.13;;;76.67;;
3074;SDS011;1548;51.716;8.748;2022-11-22T17:03:43;480.30;;;82.23;;
3074;SDS011;1548;51.716;8.748;2022-11-22T17:06:20;477.83;;;65.80;;
3074;SDS011;1548;51.716;8.748;2022-11-22T17:08:52;478.23;;;68.27;;
3074;SDS011;1548;51.716;8.748;2022-11-22T17:11:19;471.90;;;63.73;;
3074;SDS011;1548;51.716;8.748;2022-11-22T17:13:47;477.33;;;64.87;;
3074;SDS011;1548;51.716;8.748;2022-11-22T17:16:13;474.20;;;63.20;;
3074;SDS011;1548;51.716;8.748;2022-11-22T17:18:41;475.73;;;70.30;;
3074;SDS011;1548;51.716;8.748;2022-11-22T17:21:20;482.50;;;68.53;;